createdAt,value
2022-11-10T00:00:28.582Z,101860.94
2022-11-10T00:03:00.708Z,101866.97
2022-11-10T00:05:28.223Z,101872.06
2022-11-10T00:07:55.400Z,101870.13
2022-11-10T00:10:23.013Z,101870.88
2022-11-10T00:12:52.332Z,101874.25
2022-11-10T00:15:40.125Z,101867.91
2022-11-10T00:18:07.387Z,101866.88
2022-11-10T00:20:34.672Z,101873.84
2022-11-10T00:23:02.255Z,101871.16
2022-11-10T00:25:31.715Z,101871.94
2022-11-10T00:28:02.688Z,101875.47
2022-11-10T00:30:30.048Z,101874.50
2022-11-10T00:32:58.788Z,101878.84
2022-11-10T00:35:25.976Z,101878.75
2022-11-10T00:37:53.566Z,101877.81
2022-11-10T00:40:20.782Z,101868.94
2022-11-10T00:42:48.234Z,101881.22
2022-11-10T00:45:15.622Z,101874.16
2022-11-10T00:47:46.126Z,101874.22
2022-11-10T00:50:13.578Z,101876.00
2022-11-10T00:52:41.591Z,101874.31
2022-11-10T00:55:09.212Z,101872.53
2022-11-10T00:57:36.876Z,101869.78
2022-11-10T01:00:04.654Z,101867.09
2022-11-10T01:02:32.430Z,101868.75
2022-11-10T01:04:59.854Z,101867.88
2022-11-10T01:07:27.418Z,101861.69
2022-11-10T01:09:54.829Z,101863.38
2022-11-10T01:12:23.363Z,101868.66
2022-11-10T01:15:01.487Z,101867.78
2022-11-10T01:17:37.217Z,101863.38
2022-11-10T01:20:05.002Z,101868.69
2022-11-10T01:22:55.895Z,101868.66
2022-11-10T01:25:23.909Z,101867.72
2022-11-10T01:27:53.277Z,101867.72
2022-11-10T01:30:20.688Z,101865.94
2022-11-10T01:32:48.059Z,101862.38
2022-11-10T01:35:18.056Z,101858.81
2022-11-10T01:37:45.637Z,101868.53
2022-11-10T01:40:13.812Z,101862.31
2022-11-10T01:42:49.973Z,101869.31
2022-11-10T01:45:23.336Z,101868.44
2022-11-10T01:47:55.527Z,101865.84
2022-11-10T01:50:25.816Z,101864.97
2022-11-10T01:52:56.199Z,101864.97
2022-11-10T01:55:24.144Z,101864.97
2022-11-10T01:57:52.712Z,101863.28
2022-11-10T02:00:20.724Z,101864.16
2022-11-10T02:03:00.214Z,101871.34
2022-11-10T02:05:27.737Z,101868.75
2022-11-10T02:07:56.888Z,101863.47
2022-11-10T02:10:24.541Z,101869.75
2022-11-10T02:12:53.305Z,101866.16
2022-11-10T02:15:21.945Z,101860.88
2022-11-10T02:17:49.525Z,101871.56
2022-11-10T02:20:19.963Z,101881.31
2022-11-10T02:22:57.406Z,101883.97
2022-11-10T02:25:28.986Z,101883.09
2022-11-10T02:28:00.258Z,101884.88
2022-11-10T02:30:30.150Z,101887.50
2022-11-10T02:32:59.521Z,101886.69
2022-11-10T02:35:34.083Z,101886.75
2022-11-10T02:38:05.930Z,101879.81
2022-11-10T02:40:35.886Z,101884.28
2022-11-10T02:43:12.668Z,101875.50
2022-11-10T02:45:44.136Z,101874.66
2022-11-10T02:48:15.462Z,101866.81
2022-11-10T02:50:44.144Z,101869.53
2022-11-10T02:53:11.496Z,101860.72
2022-11-10T02:55:42.675Z,101866.06
2022-11-10T02:58:11.205Z,101865.09
2022-11-10T03:00:38.368Z,101863.34
2022-11-10T03:03:05.699Z,101864.22
2022-11-10T03:05:33.800Z,101866.88
2022-11-10T03:08:03.938Z,101866.16
2022-11-10T03:10:31.782Z,101868.91
2022-11-10T03:13:02.216Z,101878.66
2022-11-10T03:15:30.043Z,101881.25
2022-11-10T03:18:03.963Z,101881.25
2022-11-10T03:20:31.813Z,101879.44
2022-11-10T03:23:04.141Z,101877.63
2022-11-10T03:25:38.025Z,101884.72
2022-11-10T03:28:07.808Z,101890.88
2022-11-10T03:30:37.334Z,101890.88
2022-11-10T03:33:07.588Z,101891.84
2022-11-10T03:35:35.660Z,101887.44
2022-11-10T03:38:04.948Z,101887.41
2022-11-10T03:40:45.521Z,101891.84
2022-11-10T03:43:19.694Z,101892.63
2022-11-10T03:45:47.221Z,101891.72
2022-11-10T03:48:16.977Z,101897.94
2022-11-10T03:50:47.610Z,101901.44
2022-11-10T03:53:15.942Z,101898.78
2022-11-10T03:55:43.700Z,101902.28
2022-11-10T03:58:13.679Z,101901.44
2022-11-10T04:00:46.853Z,101899.63
2022-11-10T04:03:14.094Z,101894.31
2022-11-10T04:06:05.976Z,101904.91
2022-11-10T04:08:54.228Z,101906.66
2022-11-10T04:11:41.295Z,101902.25
2022-11-10T04:14:27.531Z,101906.63
2022-11-10T04:16:57.292Z,101903.16
2022-11-10T04:19:24.714Z,101912.81
2022-11-10T04:21:52.207Z,101909.28
2022-11-10T04:24:19.976Z,101903.97
2022-11-10T04:26:48.704Z,101908.38
2022-11-10T04:29:19.939Z,101908.38
2022-11-10T04:31:47.245Z,101911.91
2022-11-10T04:34:15.433Z,101921.56
2022-11-10T04:36:44.074Z,101919.78
2022-11-10T04:39:11.982Z,101926.00
2022-11-10T04:41:39.341Z,101923.28
2022-11-10T04:44:06.802Z,101926.91
2022-11-10T04:46:40.597Z,101927.03
2022-11-10T04:49:08.444Z,101932.31
2022-11-10T04:51:38.190Z,101927.84
2022-11-10T04:54:06.879Z,101933.19
2022-11-10T04:56:34.989Z,101928.72
2022-11-10T04:59:03.246Z,101934.78
2022-11-10T05:01:30.578Z,101942.69
2022-11-10T05:04:01.333Z,101928.59
2022-11-10T05:06:29.074Z,101935.59
2022-11-10T05:08:56.549Z,101938.22
2022-11-10T05:11:26.946Z,101941.63
2022-11-10T05:13:58.871Z,101945.06
2022-11-10T05:16:29.260Z,101945.84
2022-11-10T05:18:58.371Z,101947.41
2022-11-10T05:21:25.883Z,101953.56
2022-11-10T05:23:53.340Z,101952.59
2022-11-10T05:26:20.901Z,101961.34
2022-11-10T05:28:48.156Z,101953.38
2022-11-10T05:31:15.573Z,101952.50
2022-11-10T05:33:43.063Z,101953.31
2022-11-10T05:36:11.209Z,101950.66
2022-11-10T05:38:43.445Z,101962.97
2022-11-10T05:41:12.204Z,101961.13
2022-11-10T05:43:42.226Z,101960.09
2022-11-10T05:46:09.586Z,101970.63
2022-11-10T05:48:38.163Z,101969.47
2022-11-10T05:51:06.634Z,101974.69
2022-11-10T05:53:33.991Z,101966.56
2022-11-10T05:56:01.408Z,101973.47
2022-11-10T05:58:28.738Z,101974.25
2022-11-10T06:00:56.521Z,101975.88
2022-11-10T06:03:24.352Z,101971.38
2022-11-10T06:05:53.453Z,101982.06
2022-11-10T06:08:21.056Z,101972.34
2022-11-10T06:10:51.262Z,101980.38
2022-11-10T06:13:19.014Z,101976.75
2022-11-10T06:15:50.692Z,101977.47
2022-11-10T06:18:18.698Z,101976.47
2022-11-10T06:20:47.445Z,101971.13
2022-11-10T06:23:15.220Z,101972.75
2022-11-10T06:25:44.677Z,101978.94
2022-11-10T06:28:12.417Z,101976.28
2022-11-10T06:30:41.616Z,101972.75
2022-11-10T06:33:10.633Z,101975.31
2022-11-10T06:35:40.403Z,101977.81
2022-11-10T06:38:10.957Z,101979.44
2022-11-10T06:40:50.458Z,101981.09
2022-11-10T06:43:18.016Z,101983.66
2022-11-10T06:45:46.604Z,101988.00
2022-11-10T06:48:14.401Z,101987.72
2022-11-10T06:50:42.797Z,101992.94
2022-11-10T06:53:10.064Z,101990.97
2022-11-10T06:55:37.757Z,101990.91
2022-11-10T06:58:09.253Z,101988.13
2022-11-10T07:00:36.891Z,101991.41
2022-11-10T07:06:58.558Z,101994.28
2022-11-10T07:09:26.056Z,101994.84
2022-11-10T07:11:53.396Z,101987.72
2022-11-10T07:14:20.743Z,101990.25
2022-11-10T07:16:58.246Z,101982.56
2022-11-10T07:19:33.104Z,101994.03
2022-11-10T07:22:00.624Z,101987.72
2022-11-10T07:24:33.178Z,101989.38
2022-11-10T07:27:00.737Z,101984.91
2022-11-10T07:29:30.738Z,101985.50
2022-11-10T07:32:07.371Z,101985.25
2022-11-10T07:34:52.326Z,101979.59
2022-11-10T07:37:19.594Z,101977.56
2022-11-10T07:39:47.002Z,101977.41
2022-11-10T07:42:14.212Z,101981.56
2022-11-10T07:44:41.519Z,101978.72
2022-11-10T07:47:09.922Z,101983.78
2022-11-10T07:49:37.967Z,101980.91
2022-11-10T07:52:14.631Z,101991.34
2022-11-10T07:54:41.968Z,101984.91
2022-11-10T07:57:09.613Z,101994.16
2022-11-10T07:59:40.227Z,101996.22
2022-11-10T08:02:11.376Z,101989.59
2022-11-10T08:04:38.966Z,101989.03
2022-11-10T08:07:14.355Z,101993.97
2022-11-10T08:09:41.629Z,102006.72
2022-11-10T08:12:13.789Z,102006.16
2022-11-10T08:14:43.056Z,102012.13
2022-11-10T08:17:10.359Z,102017.03
2022-11-10T08:19:38.555Z,102006.59
2022-11-10T08:22:17.409Z,102011.34
2022-11-10T08:24:52.328Z,102003.16
2022-11-10T08:27:22.811Z,102007.72
2022-11-10T08:29:50.124Z,101998.03
2022-11-10T08:32:21.310Z,102004.88
2022-11-10T08:34:48.933Z,101999.19
2022-11-10T08:37:20.580Z,101999.41
2022-11-10T08:39:50.490Z,101995.97
2022-11-10T08:42:18.816Z,101996.59
2022-11-10T08:44:47.255Z,102001.53
2022-11-10T08:47:14.500Z,101994.69
2022-11-10T08:49:42.558Z,101994.47
2022-11-10T08:52:19.428Z,101994.34
2022-11-10T08:54:52.089Z,101998.72
2022-11-10T08:57:19.782Z,102003.28
2022-11-10T08:59:49.624Z,101995.50
2022-11-10T09:02:17.440Z,101993.81
2022-11-10T09:04:45.571Z,101994.56
2022-11-10T09:07:13.031Z,101991.09
2022-11-10T09:10:06.003Z,101996.03
2022-11-10T09:12:39.367Z,101995.56
2022-11-10T09:15:11.735Z,101993.31
2022-11-10T09:17:40.679Z,101989.88
2022-11-10T09:20:13.905Z,101993.56
2022-11-10T09:22:42.292Z,101987.59
2022-11-10T09:25:09.678Z,101987.72
2022-11-10T09:27:39.090Z,101984.31
2022-11-10T09:30:16.339Z,101983.91
2022-11-10T09:32:46.948Z,101987.66
2022-11-10T09:35:14.667Z,101989.38
2022-11-10T09:37:42.962Z,101985.53
2022-11-10T09:40:20.788Z,101980.91
2022-11-10T09:43:03.372Z,101984.34
2022-11-10T09:45:39.396Z,101992.97
2022-11-10T09:48:35.140Z,101979.25
2022-11-10T09:51:38.213Z,101970.44
2022-11-10T09:54:06.593Z,101988.78
2022-11-10T09:56:38.057Z,101980.19
2022-11-10T09:59:26.204Z,101977.63
2022-11-10T10:02:16.591Z,101973.00
2022-11-10T10:05:22.198Z,101972.19
2022-11-10T10:08:03.538Z,101964.94
2022-11-10T10:10:40.900Z,101969.31
2022-11-10T10:13:56.055Z,101970.09
2022-11-10T10:16:42.291Z,101963.63
2022-11-10T10:19:24.185Z,101964.94
2022-11-10T10:22:32.470Z,101965.13
2022-11-10T10:25:04.771Z,101961.03
2022-11-10T10:27:37.557Z,101963.41
2022-11-10T10:30:13.837Z,101962.09
2022-11-10T10:32:42.644Z,101954.84
2022-11-10T10:35:19.487Z,101960.31
2022-11-10T10:37:55.881Z,101957.72
2022-11-10T10:40:27.538Z,101963.66
2022-11-10T10:43:01.345Z,101960.09
2022-11-10T10:45:30.287Z,101962.22
2022-11-10T10:48:01.505Z,101964.81
2022-11-10T10:50:34.609Z,101950.00
2022-11-10T10:53:23.860Z,101938.91
2022-11-10T10:56:12.079Z,101956.34
2022-11-10T11:02:30.184Z,101946.00
2022-11-10T11:05:23.849Z,101946.88
2022-11-10T11:08:00.894Z,101962.00
2022-11-10T11:10:36.381Z,101956.69
2022-11-10T11:13:28.099Z,101945.41
2022-11-10T11:16:08.015Z,101940.09
2022-11-10T11:18:40.187Z,101943.88
2022-11-10T11:21:37.177Z,101946.75
2022-11-10T11:24:21.950Z,101938.91
2022-11-10T11:26:58.909Z,101950.53
2022-11-10T11:29:51.430Z,101942.47
2022-11-10T11:32:30.576Z,101947.78
2022-11-10T11:35:08.197Z,101947.91
2022-11-10T11:37:56.446Z,101943.81
2022-11-10T11:40:41.560Z,101947.59
2022-11-10T11:43:45.219Z,101954.00
2022-11-10T11:46:50.620Z,101953.50
2022-11-10T11:49:27.637Z,101948.22
2022-11-10T11:52:10.795Z,101947.03
2022-11-10T11:54:41.637Z,101950.66
2022-11-10T11:57:18.144Z,101945.00
2022-11-10T12:00:04.090Z,101945.00
2022-11-10T12:02:50.102Z,101944.22
2022-11-10T12:05:20.204Z,101947.97
2022-11-10T12:08:18.772Z,101940.88
2022-11-10T12:11:24.386Z,101956.81
2022-11-10T12:14:01.895Z,101938.63
2022-11-10T12:16:34.618Z,101942.09
2022-11-10T12:19:24.900Z,101939.38
2022-11-10T12:21:56.719Z,101944.28
2022-11-10T12:24:55.204Z,101942.31
2022-11-10T12:27:28.831Z,101944.69
2022-11-10T12:30:06.705Z,101945.16
2022-11-10T12:32:44.047Z,101940.34
2022-11-10T12:35:18.362Z,101955.00
2022-11-10T12:37:52.734Z,101944.56
2022-11-10T12:40:42.063Z,101947.47
2022-11-10T12:43:24.648Z,101946.88
2022-11-10T12:45:58.233Z,101947.75
2022-11-10T12:48:27.471Z,101955.78
2022-11-10T12:50:59.840Z,101946.13
2022-11-10T12:53:32.211Z,101948.69
2022-11-10T12:56:21.848Z,101953.88
2022-11-10T12:58:49.391Z,101954.75
2022-11-10T13:01:26.838Z,101953.94
2022-11-10T13:04:03.510Z,101955.84
2022-11-10T13:06:35.866Z,101950.69
2022-11-10T13:09:07.283Z,101948.06
2022-11-10T13:11:37.809Z,101943.56
2022-11-10T13:14:27.794Z,101942.78
2022-11-10T13:16:56.684Z,101941.84
2022-11-10T13:19:30.706Z,101943.47
2022-11-10T13:22:04.397Z,101949.69
2022-11-10T13:24:41.008Z,101949.75
2022-11-10T13:27:14.060Z,101948.94
2022-11-10T13:29:44.030Z,101951.91
2022-11-10T13:32:14.310Z,101952.28
2022-11-10T13:34:48.608Z,101945.44
2022-11-10T13:37:34.290Z,101943.00
2022-11-10T13:40:21.251Z,101953.03
2022-11-10T13:42:58.704Z,101951.53
2022-11-10T13:45:32.711Z,101952.66
2022-11-10T13:48:07.130Z,101946.53
2022-11-10T13:51:21.443Z,101951.06
2022-11-10T13:54:07.491Z,101950.25
2022-11-10T13:57:13.913Z,101961.16
2022-11-10T14:00:00.594Z,101956.72
2022-11-10T14:02:34.511Z,101954.22
2022-11-10T14:05:07.400Z,101949.31
2022-11-10T14:07:45.836Z,101952.97
2022-11-10T14:10:20.931Z,101961.19
2022-11-10T14:13:05.671Z,101953.44
2022-11-10T14:15:42.116Z,101950.19
2022-11-10T14:18:24.866Z,101956.66
2022-11-10T14:21:04.409Z,101959.63
2022-11-10T14:23:34.205Z,101969.63
2022-11-10T14:26:28.970Z,101965.41
2022-11-10T14:28:59.286Z,101957.50
2022-11-10T14:31:36.180Z,101964.81
2022-11-10T14:34:07.674Z,101964.81
2022-11-10T14:36:39.863Z,101964.81
2022-11-10T14:44:00.951Z,101963.03
2022-11-10T14:49:09.533Z,101962.13
2022-11-10T14:53:06.917Z,101962.94
2022-11-10T14:55:36.007Z,101969.28
2022-11-10T14:58:17.126Z,101971.13
2022-11-10T15:00:54.179Z,101962.53
2022-11-10T15:04:00.070Z,101961.00
2022-11-10T15:06:35.490Z,101964.69
2022-11-10T15:09:40.387Z,101965.81
2022-11-10T15:12:25.366Z,101964.28
2022-11-10T15:15:00.195Z,101964.50
2022-11-10T15:17:53.358Z,101969.25
2022-11-10T15:21:00.544Z,101963.38
2022-11-10T15:23:33.997Z,101966.53
2022-11-10T15:26:06.411Z,101972.28
2022-11-10T15:28:35.969Z,101962.94
2022-11-10T15:31:13.658Z,101966.78
2022-11-10T15:33:58.523Z,101967.06
2022-11-10T15:36:32.255Z,101979.69
2022-11-10T15:39:11.680Z,101976.41
2022-11-10T15:42:15.629Z,101978.44
2022-11-10T15:44:48.353Z,101984.78
2022-11-10T15:47:21.000Z,101971.66
2022-11-10T15:49:49.712Z,101975.41
2022-11-10T15:52:22.601Z,101972.91
2022-11-10T15:54:57.404Z,101973.97
2022-11-10T15:57:25.380Z,101972.34
2022-11-10T15:59:55.691Z,101975.16
2022-11-10T16:02:27.197Z,101972.69
2022-11-10T16:04:59.607Z,101970.00
2022-11-10T16:07:27.381Z,101974.63
2022-11-10T16:09:57.936Z,101972.09
2022-11-10T16:12:28.480Z,101969.56
2022-11-10T16:15:06.463Z,101975.91
2022-11-10T16:18:02.441Z,101970.84
2022-11-10T16:20:33.210Z,101976.25
2022-11-10T16:23:03.302Z,101970.19
2022-11-10T16:25:39.080Z,101980.03
2022-11-10T16:28:07.059Z,101982.03
2022-11-10T16:30:44.930Z,101979.50
2022-11-10T16:33:17.125Z,101981.50
2022-11-10T16:35:44.993Z,101978.81
2022-11-10T16:38:26.141Z,101984.97
2022-11-10T16:41:06.624Z,101986.84
2022-11-10T16:43:35.216Z,101987.84
2022-11-10T16:46:10.445Z,101981.69
2022-11-10T16:48:38.455Z,101973.84
2022-11-10T16:51:06.178Z,101988.16
2022-11-10T16:53:38.309Z,101989.06
2022-11-10T16:56:06.159Z,101987.47
2022-11-10T16:58:34.260Z,101995.63
2022-11-10T17:01:01.923Z,101984.25
2022-11-10T17:03:37.710Z,101988.69
2022-11-10T17:06:15.533Z,101987.03
2022-11-10T17:08:48.204Z,101978.34
2022-11-10T17:11:16.579Z,101978.47
2022-11-10T17:13:49.573Z,101981.06
2022-11-10T17:16:19.734Z,101984.66
2022-11-10T17:18:50.317Z,101975.91
2022-11-10T17:21:36.351Z,101987.53
2022-11-10T17:24:08.220Z,101979.44
2022-11-10T17:26:35.577Z,101979.66
2022-11-10T17:29:03.338Z,101984.19
2022-11-10T17:31:31.115Z,101974.47
2022-11-10T17:34:06.050Z,101983.56
2022-11-10T17:36:36.110Z,101986.31
2022-11-10T17:39:04.088Z,101980.19
2022-11-10T17:41:34.896Z,101981.13
2022-11-10T17:44:03.087Z,101978.63
2022-11-10T17:46:37.000Z,101975.19
2022-11-10T17:49:12.258Z,101970.81
2022-11-10T17:51:42.929Z,101981.44
2022-11-10T17:54:13.957Z,101972.56
2022-11-10T17:56:41.794Z,101973.41
2022-11-10T17:59:09.448Z,101971.63
2022-11-10T18:01:50.453Z,101971.63
2022-11-10T18:05:02.166Z,101963.78
2022-11-10T18:07:43.478Z,101964.81
2022-11-10T18:10:15.043Z,101970.34
2022-11-10T18:12:42.552Z,101977.47
2022-11-10T18:15:17.932Z,101977.41
2022-11-10T18:17:46.168Z,101976.53
2022-11-10T18:20:13.956Z,101988.97
2022-11-10T18:22:45.943Z,101988.09
2022-11-10T18:25:23.242Z,101987.28
2022-11-10T18:27:55.273Z,101993.53
2022-11-10T18:30:25.292Z,101987.22
2022-11-10T18:32:55.309Z,101988.09
2022-11-10T18:35:25.324Z,101989.84
2022-11-10T18:37:55.341Z,101990.72
2022-11-10T18:44:47.569Z,101994.06
2022-11-10T18:48:16.808Z,101996.59
2022-11-10T18:54:28.082Z,101992.88
2022-11-10T18:57:09.602Z,101991.09
2022-11-10T18:59:40.299Z,101986.59
2022-11-10T19:02:44.836Z,101982.22
2022-11-10T19:05:16.241Z,101982.19
2022-11-10T19:07:52.437Z,101988.34
2022-11-10T19:10:28.232Z,101985.56
2022-11-10T19:13:06.534Z,101993.59
2022-11-10T19:15:44.788Z,101991.00
2022-11-10T19:18:17.299Z,102000.81
2022-11-10T19:24:03.353Z,101991.97
2022-11-10T19:26:43.129Z,101986.69
2022-11-10T19:29:10.883Z,101988.50
2022-11-10T19:31:38.801Z,101989.47
2022-11-10T19:34:10.578Z,101989.47
2022-11-10T19:36:38.366Z,101993.06
2022-11-10T19:39:10.753Z,101987.75
2022-11-10T19:41:50.577Z,101993.09
2022-11-10T19:44:20.576Z,101989.47
2022-11-10T19:47:00.184Z,101989.47
2022-11-10T19:49:27.714Z,101981.44
2022-11-10T19:55:24.744Z,101979.66
2022-11-10T19:59:00.513Z,101975.31
2022-11-10T20:01:29.492Z,101984.16
2022-11-10T20:04:01.131Z,101984.09
2022-11-10T20:06:30.120Z,101984.09
2022-11-10T20:08:59.658Z,101982.25
2022-11-10T20:11:27.146Z,101984.09
2022-11-10T20:14:01.159Z,101980.50
2022-11-10T20:16:32.296Z,101981.44
2022-11-10T20:19:00.177Z,101978.88
2022-11-10T20:21:29.789Z,101982.41
2022-11-10T20:23:57.273Z,101987.72
2022-11-10T20:26:26.035Z,101984.16
2022-11-10T20:28:56.305Z,101982.50
2022-11-10T20:31:26.030Z,101981.66
2022-11-10T20:33:54.809Z,101987.03
2022-11-10T20:36:32.293Z,101983.50
2022-11-10T20:39:02.892Z,101975.53
2022-11-10T20:41:33.023Z,101983.53
2022-11-10T20:44:00.551Z,101988.88
2022-11-10T20:46:55.968Z,101987.19
2022-11-10T20:49:16.282Z,101989.94
2022-11-10T20:51:44.143Z,101989.94
2022-11-10T20:54:15.266Z,101983.75
2022-11-10T20:56:43.489Z,101986.47
2022-11-10T20:59:11.170Z,101988.25
2022-11-10T21:01:40.487Z,101996.22
2022-11-10T21:04:14.046Z,101994.47
2022-11-10T21:06:43.535Z,101992.78
2022-11-10T21:09:10.833Z,102003.38
2022-11-10T21:11:58.107Z,102006.97
2022-11-10T21:14:26.039Z,102004.34
2022-11-10T21:16:58.274Z,102010.59
2022-11-10T21:19:26.206Z,102008.84
2022-11-10T21:21:58.357Z,102012.38
2022-11-10T21:24:28.153Z,102011.44
2022-11-10T21:26:58.280Z,102012.38
2022-11-10T21:29:28.643Z,102015.91
2022-11-10T21:31:59.152Z,102019.44
2022-11-10T21:34:26.528Z,102018.56
2022-11-10T21:36:54.083Z,102018.56
2022-11-10T21:39:21.353Z,102010.69
2022-11-10T21:41:48.891Z,102011.56
2022-11-10T21:44:16.192Z,102020.41
2022-11-10T21:46:45.238Z,102009.81
2022-11-10T21:49:12.913Z,102012.47
2022-11-10T21:51:42.159Z,102010.78
2022-11-10T21:54:10.696Z,102018.91
2022-11-10T21:56:39.264Z,102008.41
2022-11-10T21:59:06.812Z,102010.28
2022-11-10T22:01:34.539Z,102019.22
2022-11-10T22:04:02.064Z,102021.06
2022-11-10T22:06:49.551Z,102015.75
2022-11-10T22:09:36.891Z,102018.41
2022-11-10T22:12:22.998Z,102014.00
2022-11-10T22:15:08.943Z,102011.38
2022-11-10T22:17:55.641Z,102013.25
2022-11-10T22:20:26.902Z,102024.84
2022-11-10T22:22:54.389Z,102018.75
2022-11-10T22:25:23.125Z,102017.91
2022-11-10T22:27:50.741Z,102016.22
2022-11-10T22:30:18.171Z,102010.13
2022-11-10T22:32:45.519Z,102007.47
2022-11-10T22:35:32.835Z,102018.13
2022-11-10T22:38:04.553Z,102017.25
2022-11-10T22:40:51.200Z,102016.44
2022-11-10T22:43:36.976Z,102010.25
2022-11-10T22:46:04.941Z,102018.22
2022-11-10T22:48:32.862Z,102019.91
2022-11-10T22:51:00.668Z,102019.00
2022-11-10T22:53:28.824Z,102018.97
2022-11-10T22:55:59.573Z,102011.00
2022-11-10T22:58:27.162Z,102015.34
2022-11-10T23:01:03.951Z,102006.44
2022-11-10T23:03:31.888Z,101997.56
2022-11-10T23:05:59.100Z,102009.00
2022-11-10T23:08:27.444Z,102003.78
2022-11-10T23:11:02.319Z,102004.72
2022-11-10T23:13:30.103Z,102009.22
2022-11-10T23:16:08.720Z,102013.69
2022-11-10T23:18:38.547Z,102013.69
2022-11-10T23:21:08.044Z,102017.22
2022-11-10T23:23:37.651Z,102021.63
2022-11-10T23:26:07.658Z,102019.78
2022-11-10T23:28:35.715Z,102018.84
2022-11-10T23:31:26.656Z,102016.19
2022-11-10T23:33:58.512Z,102023.19
2022-11-10T23:36:27.468Z,102022.19
2022-11-10T23:38:55.585Z,102014.09
2022-11-10T23:41:23.810Z,102025.34
2022-11-10T23:43:52.962Z,102016.28
2022-11-10T23:46:20.372Z,102017.09
2022-11-10T23:48:47.645Z,102013.50
2022-11-10T23:51:15.995Z,102009.09
2022-11-10T23:53:43.370Z,102010.81
2022-11-10T23:56:13.020Z,102011.66
2022-11-10T23:58:40.961Z,102007.19
